Time;durP1;ratioP1;P1;durP2;ratioP2;P2;SDS_P1;SDS_P2;PMS_P1;PMS_P2;Temp;Humidity;BMP_temperature;BMP_pressure;BME280_temperature;BME280_humidity;BME280_pressure;Samples;Min_cycle;Max_cycle;Signal;HPM_P1;HPM_P2
2022/05/10 00:00:07;;;;;;;;;27.75;23.75;;;;;;;;5054068;28;47386;-73
2022/05/10 00:02:33;;;;;;;;;27.00;25.25;;;;;;;;5060558;28;45569;-73
2022/05/10 00:04:59;;;;;;;;;32.25;30.00;;;;;;;;5059156;28;45421;-73
2022/05/10 00:07:25;;;;;;;;;30.00;27.75;;;;;;;;5058658;28;45315;-73
2022/05/10 00:09:50;;;;;;;;;26.75;23.00;;;;;;;;5058778;28;45475;-73
2022/05/10 00:12:15;;;;;;;;;26.75;23.50;;;;;;;;5055218;28;45409;-73
2022/05/10 00:14:41;;;;;;;;;25.00;23.50;;;;;;;;5058942;28;45418;-73
2022/05/10 00:17:06;;;;;;;;;26.50;23.50;;;;;;;;5059429;28;45437;-73
2022/05/10 00:19:31;;;;;;;;;25.25;24.00;;;;;;;;5058455;28;46163;-73
2022/05/10 00:21:57;;;;;;;;;28.50;25.75;;;;;;;;5058393;28;45491;-73
2022/05/10 00:24:23;;;;;;;;;28.50;23.75;;;;;;;;5056424;28;45456;-73
2022/05/10 00:26:48;;;;;;;;;25.50;25.50;;;;;;;;5055943;28;45620;-72
2022/05/10 00:29:14;;;;;;;;;30.75;26.25;;;;;;;;5059865;28;46975;-73
2022/05/10 00:31:39;;;;;;;;;29.25;28.00;;;;;;;;5058228;28;45367;-73
2022/05/10 00:34:04;;;;;;;;;27.00;25.25;;;;;;;;5056441;28;45471;-73
2022/05/10 00:36:30;;;;;;;;;28.00;24.00;;;;;;;;5051400;28;45281;-73
2022/05/10 00:38:55;;;;;;;;;30.50;28.00;;;;;;;;5031185;28;47929;-73
2022/05/10 00:41:47;;;;;;;;;27.25;26.25;;;;;;;;5048599;28;45564;-73
2022/05/10 00:44:17;;;;;;;;;26.00;25.75;;;;;;;;4973255;28;45518;-73
2022/05/10 00:46:47;;;;;;;;;26.75;21.00;;;;;;;;4973479;28;45491;-73
2022/05/10 00:49:21;;;;;;;;;25.50;23.50;;;;;;;;4957691;28;46126;-73
2022/05/10 00:51:52;;;;;;;;;32.00;27.75;;;;;;;;4971763;28;45491;-73
2022/05/10 00:54:26;;;;;;;;;25.00;23.25;;;;;;;;4963846;28;45506;-73
2022/05/10 00:56:56;;;;;;;;;25.25;23.25;;;;;;;;4961921;28;45448;-73
2022/05/10 00:59:26;;;;;;;;;29.00;26.00;;;;;;;;4963729;28;46249;-73
2022/05/10 01:01:54;;;;;;;;;32.50;28.00;;;;;;;;4973181;28;45351;-73
2022/05/10 01:04:25;;;;;;;;;29.75;25.75;;;;;;;;4956880;28;45396;-73
2022/05/10 01:06:56;;;;;;;;;26.25;24.25;;;;;;;;4958518;28;45501;-73
2022/05/10 01:09:23;;;;;;;;;33.50;27.00;;;;;;;;4961883;28;45435;-73
2022/05/10 01:11:51;;;;;;;;;25.25;23.75;;;;;;;;4961561;28;45429;-73
2022/05/10 01:14:27;;;;;;;;;35.75;31.25;;;;;;;;4967491;28;45505;-73
2022/05/10 01:16:56;;;;;;;;;27.75;25.25;;;;;;;;4973063;28;45445;-73
2022/05/10 01:19:21;;;;;;;;;27.25;27.25;;;;;;;;4988487;28;46129;-73
2022/05/10 01:21:47;;;;;;;;;29.50;26.50;;;;;;;;5051484;27;45424;-73
2022/05/10 01:24:31;;;;;;;;;25.25;21.50;;;;;;;;5060541;28;45693;-73
2022/05/10 01:26:59;;;;;;;;;31.25;29.25;;;;;;;;5057439;28;45459;-73
2022/05/10 01:29:44;;;;;;;;;12.00;12.00;;;;;;;;5057362;28;47196;-73
2022/05/10 01:34:59;;;;;;;;;35.00;32.00;;;;;;;;5056132;28;45567;-73
2022/05/10 01:37:27;;;;;;;;;38.75;33.50;;;;;;;;5054216;28;45258;-72
2022/05/10 01:39:57;;;;;;;;;31.25;29.00;;;;;;;;5058912;28;46829;-72
2022/05/10 01:42:25;;;;;;;;;24.25;23.50;;;;;;;;5057218;28;45407;-73
2022/05/10 01:44:56;;;;;;;;;35.25;30.25;;;;;;;;5039476;28;45518;-73
2022/05/10 01:47:35;;;;;;;;;28.00;24.00;;;;;;;;5039229;28;45451;-73
2022/05/10 01:50:13;;;;;;;;;28.50;27.25;;;;;;;;5056082;28;46577;-73
2022/05/10 01:52:48;;;;;;;;;29.75;28.75;;;;;;;;5037839;28;45565;-73
2022/05/10 01:55:22;;;;;;;;;32.25;30.50;;;;;;;;5056262;28;45300;-73
2022/05/10 01:57:47;;;;;;;;;32.25;27.00;;;;;;;;5057457;28;45424;-73
2022/05/10 02:00:18;;;;;;;;;26.75;24.75;;;;;;;;5056934;28;45541;-73
2022/05/10 02:02:55;;;;;;;;;28.75;27.75;;;;;;;;5057040;28;45518;-73
2022/05/10 02:05:27;;;;;;;;;29.00;27.50;;;;;;;;5057333;28;45343;-72
2022/05/10 02:07:56;;;;;;;;;30.75;24.25;;;;;;;;5019488;28;45423;-72
2022/05/10 02:10:32;;;;;;;;;28.25;25.75;;;;;;;;5053918;28;45446;-72
2022/05/10 02:13:06;;;;;;;;;30.75;27.25;;;;;;;;5058666;28;45595;-72
2022/05/10 02:15:38;;;;;;;;;30.25;28.25;;;;;;;;5058741;27;45491;-72
2022/05/10 02:18:06;;;;;;;;;28.00;26.50;;;;;;;;5060210;28;45408;-72
2022/05/10 02:20:37;;;;;;;;;29.25;27.50;;;;;;;;5060063;28;46144;-72
2022/05/10 02:23:07;;;;;;;;;32.25;27.00;;;;;;;;5058743;28;45512;-72
2022/05/10 02:25:33;;;;;;;;;34.50;30.50;;;;;;;;5039845;28;45220;-73
2022/05/10 02:28:03;;;;;;;;;31.50;29.00;;;;;;;;5062218;28;45632;-73
2022/05/10 02:30:29;;;;;;;;;36.00;32.00;;;;;;;;5059676;28;46926;-72
2022/05/10 02:33:09;;;;;;;;;31.00;26.50;;;;;;;;5041916;28;45885;-72
2022/05/10 02:35:38;;;;;;;;;30.50;29.00;;;;;;;;5060046;28;45458;-72
2022/05/10 02:38:04;;;;;;;;;30.25;27.25;;;;;;;;5059415;28;45489;-72
2022/05/10 02:40:29;;;;;;;;;28.50;27.50;;;;;;;;5056082;28;45997;-72
2022/05/10 02:42:54;;;;;;;;;25.50;24.25;;;;;;;;5062130;28;45475;-72
2022/05/10 02:45:20;;;;;;;;;25.00;25.00;;;;;;;;5060153;28;45354;-72
2022/05/10 02:47:46;;;;;;;;;29.25;25.25;;;;;;;;5059324;27;47780;-72
2022/05/10 02:50:17;;;;;;;;;31.50;27.00;;;;;;;;5059664;28;45407;-73
2022/05/10 02:52:42;;;;;;;;;31.75;29.75;;;;;;;;5055891;28;45387;-73
2022/05/10 02:55:15;;;;;;;;;29.50;29.00;;;;;;;;5060136;28;45458;-73
2022/05/10 02:57:40;;;;;;;;;30.75;29.75;;;;;;;;5061076;27;45371;-73
2022/05/10 03:00:06;;;;;;;;;29.75;25.50;;;;;;;;5059306;28;47319;-73
2022/05/10 03:02:34;;;;;;;;;33.25;27.50;;;;;;;;5059684;28;45257;-73
2022/05/10 03:04:59;;;;;;;;;27.75;27.75;;;;;;;;5058935;28;45360;-73
2022/05/10 03:07:26;;;;;;;;;30.25;23.50;;;;;;;;5056088;28;45485;-73
2022/05/10 03:09:51;;;;;;;;;25.75;24.75;;;;;;;;5061594;28;45421;-73
2022/05/10 03:12:16;;;;;;;;;27.00;26.00;;;;;;;;5059196;28;45634;-73
2022/05/10 03:14:41;;;;;;;;;26.00;22.75;;;;;;;;5059381;27;46434;-73
2022/05/10 03:17:10;;;;;;;;;24.00;22.50;;;;;;;;5059723;28;45334;-73
2022/05/10 03:19:36;;;;;;;;;24.50;23.75;;;;;;;;5039377;28;47304;-73
2022/05/10 03:22:01;;;;;;;;;22.25;21.75;;;;;;;;5060830;27;45518;-71
2022/05/10 03:24:26;;;;;;;;;20.00;17.00;;;;;;;;5059207;28;45300;-72
2022/05/10 03:26:52;;;;;;;;;22.25;21.50;;;;;;;;5058715;27;45444;-72
2022/05/10 03:29:18;;;;;;;;;21.50;21.00;;;;;;;;5059073;28;46325;-71
2022/05/10 03:31:43;;;;;;;;;23.00;22.75;;;;;;;;5055757;28;45399;-72
2022/05/10 03:36:52;;;;;;;;;27.00;24.00;;;;;;;;5060797;28;45563;-73
2022/05/10 03:39:17;;;;;;;;;15.50;15.50;;;;;;;;5058869;27;47271;-72
2022/05/10 03:41:43;;;;;;;;;23.50;21.25;;;;;;;;5040628;28;45344;-72
2022/05/10 03:44:09;;;;;;;;;24.50;22.00;;;;;;;;5059462;28;45367;-72
2022/05/10 03:46:34;;;;;;;;;21.50;18.25;;;;;;;;5037165;28;45468;-72
2022/05/10 03:48:59;;;;;;;;;23.50;21.50;;;;;;;;5060855;28;45336;-73
2022/05/10 03:51:25;;;;;;;;;25.75;24.50;;;;;;;;5058949;28;45367;-73
2022/05/10 03:53:50;;;;;;;;;22.00;20.00;;;;;;;;5060060;28;45411;-72
2022/05/10 03:56:15;;;;;;;;;17.50;17.25;;;;;;;;5059630;28;45462;-73
2022/05/10 03:58:41;;;;;;;;;20.50;20.50;;;;;;;;5056612;28;46955;-73
2022/05/10 04:01:09;;;;;;;;;19.25;18.00;;;;;;;;5062331;28;45350;-74
2022/05/10 04:03:34;;;;;;;;;20.25;19.00;;;;;;;;5059145;27;45453;-73
2022/05/10 04:06:00;;;;;;;;;22.00;20.75;;;;;;;;5058552;28;45387;-73
2022/05/10 04:08:25;;;;;;;;;21.50;21.50;;;;;;;;5058583;27;45538;-73
2022/05/10 04:10:50;;;;;;;;;22.50;20.25;;;;;;;;5056281;28;45472;-73
2022/05/10 04:13:15;;;;;;;;;19.75;18.50;;;;;;;;5056913;28;45339;-74
2022/05/10 04:15:41;;;;;;;;;20.50;17.75;;;;;;;;5060024;27;45532;-73
2022/05/10 04:18:06;;;;;;;;;19.00;19.00;;;;;;;;5058410;28;46095;-73
2022/05/10 04:20:31;;;;;;;;;22.75;20.25;;;;;;;;5057202;28;45507;-73
2022/05/10 04:22:58;;;;;;;;;17.00;17.00;;;;;;;;5056719;28;45526;-73
2022/05/10 04:25:23;;;;;;;;;19.25;17.00;;;;;;;;5036990;28;45288;-73
2022/05/10 04:27:49;;;;;;;;;20.25;19.75;;;;;;;;5059913;27;46346;-73
2022/05/10 04:30:14;;;;;;;;;18.50;18.50;;;;;;;;5058074;28;45436;-73
2022/05/10 04:32:40;;;;;;;;;18.50;18.00;;;;;;;;5057653;28;45482;-73
2022/05/10 04:35:06;;;;;;;;;12.75;11.50;;;;;;;;5057295;28;45331;-73
2022/05/10 04:37:31;;;;;;;;;17.00;16.50;;;;;;;;5053686;28;46179;-73
2022/05/10 04:42:57;;;;;;;;;23.00;20.50;;;;;;;;4997115;28;45460;-73
2022/05/10 04:45:22;;;;;;;;;20.50;19.25;;;;;;;;4994784;28;45388;-73
2022/05/10 04:47:47;;;;;;;;;21.75;18.50;;;;;;;;4994584;28;46055;-73
2022/05/10 04:50:13;;;;;;;;;24.00;22.00;;;;;;;;4994837;28;45489;-73
2022/05/10 04:52:39;;;;;;;;;25.75;23.50;;;;;;;;4990094;28;45381;-73
2022/05/10 04:55:05;;;;;;;;;19.75;19.00;;;;;;;;4997107;28;45463;-72
2022/05/10 04:57:30;;;;;;;;;20.25;19.75;;;;;;;;4995251;28;46061;-73
2022/05/10 04:59:56;;;;;;;;;20.50;17.00;;;;;;;;4994251;28;45675;-73
2022/05/10 05:02:21;;;;;;;;;19.75;17.00;;;;;;;;4994499;28;45564;-73
2022/05/10 05:04:46;;;;;;;;;19.00;18.25;;;;;;;;4975389;28;45390;-74
2022/05/10 05:07:12;;;;;;;;;16.25;16.25;;;;;;;;4988655;28;46036;-73
2022/05/10 05:09:37;;;;;;;;;23.00;20.25;;;;;;;;4974805;28;45565;-73
2022/05/10 05:12:04;;;;;;;;;17.50;14.25;;;;;;;;4985346;28;46739;-73
2022/05/10 05:14:29;;;;;;;;;21.50;17.50;;;;;;;;4981686;28;45600;-73
2022/05/10 05:16:54;;;;;;;;;21.00;19.00;;;;;;;;5005269;28;46837;-75
2022/05/10 05:19:20;;;;;;;;;17.00;16.75;;;;;;;;5041772;28;47545;-75
2022/05/10 05:21:45;;;;;;;;;21.75;19.00;;;;;;;;5044109;28;45418;-75
2022/05/10 05:24:11;;;;;;;;;20.00;18.00;;;;;;;;5041702;28;45394;-73
2022/05/10 05:26:36;;;;;;;;;23.75;18.25;;;;;;;;5047646;28;45403;-73
2022/05/10 05:29:02;;;;;;;;;17.50;15.75;;;;;;;;5048215;28;45472;-73
2022/05/10 05:31:27;;;;;;;;;16.25;16.25;;;;;;;;5051041;28;45873;-73
2022/05/10 05:33:54;;;;;;;;;21.75;21.00;;;;;;;;5038283;28;45477;-73
2022/05/10 05:36:19;;;;;;;;;19.25;19.25;;;;;;;;5038865;28;46077;-73
2022/05/10 05:38:44;;;;;;;;;23.00;22.00;;;;;;;;5038570;28;45417;-73
2022/05/10 05:41:09;;;;;;;;;19.75;18.50;;;;;;;;5038814;28;45314;-73
2022/05/10 05:43:35;;;;;;;;;17.50;17.50;;;;;;;;5054362;28;45517;-72
2022/05/10 05:46:01;;;;;;;;;12.50;10.75;;;;;;;;5059082;28;47472;-73
2022/05/10 05:48:27;;;;;;;;;19.00;17.00;;;;;;;;5047302;28;46521;-75
2022/05/10 05:50:52;;;;;;;;;11.00;11.00;;;;;;;;5051566;28;45361;-72
2022/05/10 05:53:17;;;;;;;;;24.00;23.00;;;;;;;;5057157;27;45718;-74
2022/05/10 05:55:43;;;;;;;;;18.75;18.75;;;;;;;;5059655;28;45565;-75
2022/05/10 05:58:10;;;;;;;;;20.50;20.50;;;;;;;;5063965;27;45508;-74
2022/05/10 06:00:35;;;;;;;;;20.25;17.50;;;;;;;;5061249;28;45411;-77
2022/05/10 06:03:01;;;;;;;;;23.25;21.00;;;;;;;;5056848;28;45824;-77
2022/05/10 06:05:27;;;;;;;;;18.00;16.00;;;;;;;;5045912;28;45597;-77
2022/05/10 06:07:52;;;;;;;;;23.00;20.75;;;;;;;;5060862;28;47420;-78
2022/05/10 06:10:17;;;;;;;;;19.00;19.00;;;;;;;;5055677;28;45474;-78
2022/05/10 06:12:43;;;;;;;;;18.75;18.75;;;;;;;;5041769;28;45298;-78
2022/05/10 06:15:11;;;;;;;;;21.00;18.50;;;;;;;;5038354;28;46166;-79
2022/05/10 06:17:37;;;;;;;;;19.25;17.00;;;;;;;;5052547;28;45386;-77
2022/05/10 06:20:04;;;;;;;;;17.50;16.50;;;;;;;;5050583;28;45294;-78
2022/05/10 06:22:29;;;;;;;;;17.50;17.25;;;;;;;;5049913;28;45361;-78
2022/05/10 06:24:55;;;;;;;;;17.50;17.50;;;;;;;;5049506;28;47173;-78
2022/05/10 06:27:20;;;;;;;;;15.25;14.50;;;;;;;;5053393;28;45599;-78
2022/05/10 06:29:45;;;;;;;;;23.25;19.00;;;;;;;;5040628;28;45438;-78
2022/05/10 06:32:11;;;;;;;;;21.50;18.75;;;;;;;;5042369;28;45487;-76
2022/05/10 06:34:38;;;;;;;;;17.00;15.25;;;;;;;;5044104;28;46364;-77
2022/05/10 06:38:15;;;;;;;;;19.50;19.50;;;;;;;;5042770;28;45424;-77
2022/05/10 06:39:48;;;;;;;;;17.50;16.25;;;;;;;;5041999;28;45308;-77
2022/05/10 06:42:13;;;;;;;;;19.00;16.00;;;;;;;;5054466;28;45280;-77
2022/05/10 06:44:39;;;;;;;;;17.75;17.75;;;;;;;;5052367;28;46269;-77
2022/05/10 06:47:04;;;;;;;;;20.25;18.75;;;;;;;;5050718;28;45316;-76
2022/05/10 06:49:29;;;;;;;;;20.25;19.25;;;;;;;;5064195;28;45418;-75
2022/05/10 06:51:54;;;;;;;;;20.00;18.75;;;;;;;;5067677;27;45459;-77
2022/05/10 06:54:19;;;;;;;;;18.50;18.50;;;;;;;;5056010;28;46422;-78
2022/05/10 06:56:44;;;;;;;;;16.50;15.00;;;;;;;;5057555;28;45343;-78
2022/05/10 06:59:10;;;;;;;;;17.75;17.75;;;;;;;;5059316;27;45343;-78
2022/05/10 07:01:35;;;;;;;;;19.00;18.00;;;;;;;;5056991;28;45541;-77
2022/05/10 07:04:02;;;;;;;;;21.00;21.00;;;;;;;;5057309;28;46175;-78
2022/05/10 07:06:27;;;;;;;;;21.00;18.25;;;;;;;;5056461;28;45334;-77
2022/05/10 07:08:52;;;;;;;;;18.25;18.25;;;;;;;;5055858;28;45548;-77
2022/05/10 07:11:18;;;;;;;;;19.75;17.75;;;;;;;;5060467;28;45382;-77
2022/05/10 07:13:43;;;;;;;;;20.00;20.00;;;;;;;;5057450;28;45568;-77
2022/05/10 07:16:09;;;;;;;;;17.50;17.50;;;;;;;;5058102;28;45292;-77
2022/05/10 07:18:34;;;;;;;;;20.75;19.25;;;;;;;;5057798;28;45271;-78
2022/05/10 07:20:59;;;;;;;;;16.75;16.25;;;;;;;;5054126;28;45693;-78
2022/05/10 07:23:27;;;;;;;;;21.50;18.50;;;;;;;;5059736;28;45650;-76
2022/05/10 07:25:52;;;;;;;;;16.75;16.75;;;;;;;;5057853;28;45553;-77
2022/05/10 07:28:17;;;;;;;;;14.50;14.50;;;;;;;;5057542;28;45401;-77
2022/05/10 07:30:42;;;;;;;;;20.75;18.50;;;;;;;;5057997;28;45736;-78
2022/05/10 07:33:08;;;;;;;;;20.50;19.75;;;;;;;;5055581;28;45123;-77
2022/05/10 07:38:18;;;;;;;;;22.25;20.00;;;;;;;;5060209;28;45432;-76
2022/05/10 07:40:45;;;;;;;;;21.25;18.00;;;;;;;;5059620;28;45488;-77
2022/05/10 07:43:12;;;;;;;;;17.00;16.25;;;;;;;;5058324;27;45336;-77
2022/05/10 07:45:37;;;;;;;;;17.25;11.50;;;;;;;;5059891;28;45468;-76
2022/05/10 07:48:03;;;;;;;;;19.50;16.75;;;;;;;;5063942;28;45326;-75
2022/05/10 07:50:28;;;;;;;;;10.25;10.25;;;;;;;;5070188;28;45263;-76
2022/05/10 07:52:53;;;;;;;;;16.50;13.50;;;;;;;;5062618;28;45357;-78
2022/05/10 07:55:18;;;;;;;;;13.75;13.75;;;;;;;;5060201;27;45323;-76
2022/05/10 07:57:44;;;;;;;;;18.50;17.25;;;;;;;;5059475;27;45391;-76
2022/05/10 08:00:13;;;;;;;;;17.00;17.00;;;;;;;;5055222;28;45376;-77
2022/05/10 08:02:42;;;;;;;;;18.00;14.50;;;;;;;;5058470;28;46870;-77
2022/05/10 08:05:08;;;;;;;;;14.75;14.50;;;;;;;;5057068;28;45388;-77
2022/05/10 08:07:33;;;;;;;;;17.00;15.25;;;;;;;;5057454;28;45308;-77
2022/05/10 08:09:59;;;;;;;;;16.50;15.75;;;;;;;;5056939;28;45291;-77
2022/05/10 08:12:24;;;;;;;;;14.75;13.75;;;;;;;;5054276;28;45820;-77
2022/05/10 08:14:49;;;;;;;;;16.00;14.25;;;;;;;;5055350;28;45642;-77
2022/05/10 08:17:14;;;;;;;;;15.25;15.00;;;;;;;;5059629;27;45287;-76
2022/05/10 08:19:39;;;;;;;;;18.50;17.00;;;;;;;;5057961;27;45345;-77
2022/05/10 08:22:05;;;;;;;;;16.00;13.75;;;;;;;;5057186;28;46339;-77
2022/05/10 08:24:30;;;;;;;;;13.75;13.00;;;;;;;;5056019;28;45324;-76
2022/05/10 08:26:55;;;;;;;;;17.50;16.50;;;;;;;;5053729;28;45608;-77
2022/05/10 08:29:20;;;;;;;;;15.25;14.75;;;;;;;;5058903;28;45328;-77
2022/05/10 08:31:45;;;;;;;;;16.25;15.25;;;;;;;;5056671;28;47341;-77
2022/05/10 08:34:11;;;;;;;;;15.25;15.25;;;;;;;;5057090;27;45550;-77
2022/05/10 08:36:36;;;;;;;;;17.75;15.00;;;;;;;;5056559;28;45387;-77
2022/05/10 08:39:01;;;;;;;;;14.50;12.50;;;;;;;;5052915;28;45264;-78
2022/05/10 08:41:32;;;;;;;;;9.50;8.50;;;;;;;;5058449;28;45956;-77
2022/05/10 08:44:00;;;;;;;;;10.75;10.75;;;;;;;;5056988;28;45485;-77
2022/05/10 08:46:30;;;;;;;;;14.50;11.75;;;;;;;;5056691;28;45411;-78
2022/05/10 08:48:58;;;;;;;;;17.25;13.75;;;;;;;;5057096;28;45406;-77
2022/05/10 08:51:24;;;;;;;;;13.50;13.50;;;;;;;;5055801;28;46945;-77
2022/05/10 08:53:50;;;;;;;;;9.75;9.75;;;;;;;;5056610;28;45573;-77
2022/05/10 08:56:24;;;;;;;;;16.75;13.00;;;;;;;;5062618;28;45213;-77
2022/05/10 08:58:52;;;;;;;;;11.75;10.50;;;;;;;;5065016;27;45343;-77
2022/05/10 09:01:22;;;;;;;;;13.50;12.00;;;;;;;;5064444;28;46156;-77
2022/05/10 09:03:56;;;;;;;;;14.00;12.00;;;;;;;;5058188;28;45506;-78
2022/05/10 09:06:27;;;;;;;;;15.75;11.00;;;;;;;;5034745;28;45488;-78
2022/05/10 09:08:53;;;;;;;;;13.25;11.25;;;;;;;;5053395;28;45379;-78
2022/05/10 09:11:18;;;;;;;;;11.50;11.50;;;;;;;;5058426;28;46399;-77
2022/05/10 09:13:45;;;;;;;;;13.00;11.25;;;;;;;;5056384;28;45499;-77
2022/05/10 09:16:12;;;;;;;;;15.50;12.50;;;;;;;;5057134;28;45424;-77
2022/05/10 09:18:37;;;;;;;;;14.00;12.00;;;;;;;;5056466;28;45511;-77
2022/05/10 09:21:09;;;;;;;;;9.25;8.00;;;;;;;;5052718;28;46269;-76
2022/05/10 09:23:40;;;;;;;;;13.50;12.25;;;;;;;;5065984;27;45300;-77
2022/05/10 09:26:06;;;;;;;;;11.25;10.75;;;;;;;;5058179;27;45328;-77
2022/05/10 09:28:52;;;;;;;;;11.25;11.25;;;;;;;;5060523;28;45563;-77
2022/05/10 09:36:52;;;;;;;;;10.25;9.75;;;;;;;;5056691;28;45569;-77
2022/05/10 09:39:23;;;;;;;;;13.50;13.50;;;;;;;;5053462;28;45214;-78
2022/05/10 09:41:52;;;;;;;;;10.25;9.50;;;;;;;;5054984;28;46070;-77
2022/05/10 09:44:20;;;;;;;;;16.25;14.00;;;;;;;;5038228;28;46533;-77
2022/05/10 09:46:46;;;;;;;;;13.25;11.75;;;;;;;;5056178;28;45470;-77
2022/05/10 09:49:28;;;;;;;;;11.25;9.75;;;;;;;;5056194;28;45517;-77
2022/05/10 09:51:58;;;;;;;;;10.50;10.50;;;;;;;;5056170;28;46203;-76
2022/05/10 09:54:30;;;;;;;;;13.25;13.25;;;;;;;;5053691;28;45473;-75
2022/05/10 09:56:56;;;;;;;;;14.25;9.75;;;;;;;;5052852;28;45291;-76
2022/05/10 09:59:21;;;;;;;;;14.00;14.00;;;;;;;;5058154;28;45334;-78
2022/05/10 10:01:48;;;;;;;;;13.50;11.75;;;;;;;;5055815;28;45337;-78
2022/05/10 10:04:26;;;;;;;;;14.25;13.75;;;;;;;;5055781;28;45368;-76
2022/05/10 10:07:03;;;;;;;;;13.75;12.75;;;;;;;;5055258;28;45375;-77
2022/05/10 10:09:30;;;;;;;;;10.25;9.00;;;;;;;;5054325;28;45620;-77
2022/05/10 10:11:55;;;;;;;;;11.50;11.50;;;;;;;;5051814;28;46256;-75
2022/05/10 10:14:32;;;;;;;;;13.75;12.75;;;;;;;;5057713;28;45471;-77
2022/05/10 10:16:57;;;;;;;;;10.75;10.75;;;;;;;;5055646;27;45475;-77
2022/05/10 10:19:25;;;;;;;;;12.25;12.25;;;;;;;;5055593;28;45230;-78
2022/05/10 10:21:50;;;;;;;;;11.00;9.50;;;;;;;;5055626;27;47063;-76
2022/05/10 10:24:19;;;;;;;;;12.00;11.00;;;;;;;;5052091;28;45498;-77
2022/05/10 10:26:49;;;;;;;;;9.00;9.00;;;;;;;;5055266;28;45345;-77
2022/05/10 10:29:25;;;;;;;;;11.75;11.75;;;;;;;;5038676;28;45623;-77
2022/05/10 10:31:52;;;;;;;;;9.00;9.00;;;;;;;;5054934;28;46906;-76
2022/05/10 10:34:24;;;;;;;;;10.75;8.75;;;;;;;;5053807;28;45831;-77
2022/05/10 10:37:00;;;;;;;;;12.25;10.75;;;;;;;;5055386;28;45492;-77
2022/05/10 10:39:48;;;;;;;;;15.25;13.75;;;;;;;;5056328;27;45529;-77
2022/05/10 10:42:28;;;;;;;;;12.25;11.25;;;;;;;;5031284;28;45302;-78
2022/05/10 10:44:55;;;;;;;;;7.75;7.75;;;;;;;;5055249;28;45428;-77
2022/05/10 10:47:24;;;;;;;;;14.25;8.00;;;;;;;;5060263;28;45425;-77
2022/05/10 10:50:11;;;;;;;;;9.00;9.00;;;;;;;;5058136;28;45305;-78
2022/05/10 10:52:36;;;;;;;;;12.00;10.75;;;;;;;;5057893;28;46924;-77
2022/05/10 10:55:03;;;;;;;;;12.25;11.25;;;;;;;;5058532;27;45495;-77
2022/05/10 10:57:32;;;;;;;;;13.25;11.25;;;;;;;;5057568;28;45420;-77
2022/05/10 11:00:00;;;;;;;;;13.50;12.50;;;;;;;;5055378;28;45558;-77
2022/05/10 11:02:39;;;;;;;;;18.25;13.00;;;;;;;;5060450;28;46059;-77
2022/05/10 11:05:05;;;;;;;;;10.50;8.00;;;;;;;;5057197;28;45372;-77
2022/05/10 11:07:48;;;;;;;;;11.00;9.00;;;;;;;;5058370;27;45407;-77
2022/05/10 11:10:22;;;;;;;;;6.25;5.50;;;;;;;;5058877;28;45436;-77
2022/05/10 11:13:01;;;;;;;;;9.75;8.25;;;;;;;;5057409;28;46173;-77
2022/05/10 11:15:35;;;;;;;;;9.75;9.75;;;;;;;;5056465;28;45516;-77
2022/05/10 11:18:15;;;;;;;;;11.00;10.25;;;;;;;;5054473;28;45349;-76
2022/05/10 11:20:43;;;;;;;;;10.50;10.50;;;;;;;;5067822;27;45452;-77
2022/05/10 11:23:10;;;;;;;;;10.50;8.25;;;;;;;;5058545;28;47213;-77
2022/05/10 11:25:38;;;;;;;;;7.75;7.75;;;;;;;;5058048;27;45596;-77
2022/05/10 11:28:06;;;;;;;;;14.50;10.25;;;;;;;;5057686;28;45757;-77
2022/05/10 11:30:34;;;;;;;;;9.00;7.25;;;;;;;;5056764;28;45294;-76
2022/05/10 11:33:08;;;;;;;;;9.25;8.00;;;;;;;;5053580;28;46324;-76
2022/05/10 11:35:54;;;;;;;;;10.00;10.00;;;;;;;;5066739;28;45541;-75
2022/05/10 11:38:25;;;;;;;;;9.00;7.00;;;;;;;;5058241;28;45450;-77
2022/05/10 11:41:07;;;;;;;;;14.75;12.25;;;;;;;;5058144;28;45489;-77
2022/05/10 11:43:36;;;;;;;;;7.50;7.25;;;;;;;;5057736;28;46457;-77
2022/05/10 11:46:11;;;;;;;;;5.75;5.75;;;;;;;;5057750;28;45387;-78
2022/05/10 11:48:51;;;;;;;;;13.00;10.75;;;;;;;;5056536;28;45375;-77
2022/05/10 11:51:39;;;;;;;;;11.00;9.25;;;;;;;;5039623;28;45415;-77
2022/05/10 11:54:04;;;;;;;;;11.50;11.50;;;;;;;;5054574;28;46874;-76
2022/05/10 11:56:33;;;;;;;;;11.50;11.50;;;;;;;;5061094;28;45305;-75
2022/05/10 11:59:01;;;;;;;;;10.25;8.50;;;;;;;;5057656;28;45420;-76
2022/05/10 12:01:40;;;;;;;;;6.50;6.50;;;;;;;;5065199;27;45344;-73
2022/05/10 12:04:06;;;;;;;;;8.25;8.25;;;;;;;;5065193;27;45532;-74
2022/05/10 12:06:33;;;;;;;;;10.75;10.75;;;;;;;;5058680;28;45400;-76
2022/05/10 12:09:00;;;;;;;;;8.00;8.00;;;;;;;;5054041;28;45509;-76
2022/05/10 12:11:28;;;;;;;;;15.75;9.75;;;;;;;;5059685;27;45352;-78
2022/05/10 12:22:09;;;;;;;;;9.75;9.75;;;;;;;;5057320;28;45325;-77
2022/05/10 12:24:45;;;;;;;;;10.50;10.00;;;;;;;;5068950;28;45402;-76
2022/05/10 12:27:11;;;;;;;;;8.25;8.25;;;;;;;;5036824;28;45398;-75
2022/05/10 12:29:39;;;;;;;;;8.00;8.00;;;;;;;;5059093;28;45488;-74
2022/05/10 12:32:08;;;;;;;;;7.50;7.50;;;;;;;;5057763;28;45358;-73
2022/05/10 12:34:42;;;;;;;;;7.25;7.25;;;;;;;;5057229;28;47044;-74
2022/05/10 12:37:28;;;;;;;;;10.25;10.25;;;;;;;;5057398;28;45510;-75
2022/05/10 12:39:56;;;;;;;;;7.00;7.00;;;;;;;;5045898;28;47301;-77
2022/05/10 12:42:33;;;;;;;;;8.50;8.50;;;;;;;;5054499;28;45539;-77
2022/05/10 12:45:02;;;;;;;;;10.00;10.00;;;;;;;;5053101;28;46129;-76
2022/05/10 12:47:36;;;;;;;;;10.75;8.50;;;;;;;;5058673;28;45313;-76
2022/05/10 12:50:32;;;;;;;;;9.25;9.25;;;;;;;;5057209;28;45543;-76
2022/05/10 12:52:58;;;;;;;;;7.75;7.75;;;;;;;;5057260;28;45354;-77
2022/05/10 12:55:25;;;;;;;;;7.67;7.33;;;;;;;;5056721;28;46114;-77
2022/05/10 12:57:54;;;;;;;;;11.25;10.00;;;;;;;;5056658;28;45593;-77
2022/05/10 13:00:21;;;;;;;;;13.00;10.00;;;;;;;;5053497;28;45457;-77
2022/05/10 13:02:52;;;;;;;;;7.67;7.67;;;;;;;;5055800;28;45340;-77
2022/05/10 13:05:20;;;;;;;;;5.00;5.00;;;;;;;;5056818;28;46166;-77
2022/05/10 13:08:01;;;;;;;;;8.25;8.25;;;;;;;;5055856;27;45429;-78
2022/05/10 13:10:28;;;;;;;;;7.33;6.33;;;;;;;;5057056;28;45292;-77
2022/05/10 13:13:01;;;;;;;;;7.00;7.00;;;;;;;;5057043;28;45445;-77
2022/05/10 13:15:29;;;;;;;;;8.00;8.00;;;;;;;;5054081;28;47119;-77
2022/05/10 13:17:56;;;;;;;;;9.00;8.00;;;;;;;;5053264;28;45534;-77
2022/05/10 13:20:22;;;;;;;;;12.00;10.67;;;;;;;;5058786;28;45350;-76
2022/05/10 13:22:50;;;;;;;;;8.67;8.67;;;;;;;;5056673;28;45570;-76
2022/05/10 13:25:23;;;;;;;;;11.25;10.25;;;;;;;;5056313;27;46129;-76
2022/05/10 13:27:51;;;;;;;;;7.75;6.50;;;;;;;;5056301;27;45330;-76
2022/05/10 13:30:18;;;;;;;;;6.50;6.00;;;;;;;;5052900;28;45338;-76
2022/05/10 13:32:44;;;;;;;;;8.50;7.75;;;;;;;;5056878;28;45433;-76
2022/05/10 13:35:20;;;;;;;;;9.33;9.00;;;;;;;;5056958;28;46230;-75
2022/05/10 13:37:53;;;;;;;;;6.00;6.00;;;;;;;;5056176;28;45463;-77
2022/05/10 13:40:24;;;;;;;;;4.67;4.67;;;;;;;;5056024;28;45478;-75
2022/05/10 13:42:50;;;;;;;;;9.33;9.33;;;;;;;;5056293;28;45575;-75
2022/05/10 13:45:20;;;;;;;;;9.00;8.00;;;;;;;;5052207;28;46132;-75
2022/05/10 13:47:48;;;;;;;;;9.00;9.00;;;;;;;;5055725;28;45371;-75
2022/05/10 13:50:20;;;;;;;;;7.33;7.00;;;;;;;;5057444;28;45285;-76
2022/05/10 13:52:48;;;;;;;;;8.00;7.75;;;;;;;;5056089;28;45498;-74
2022/05/10 13:55:17;;;;;;;;;10.00;7.33;;;;;;;;5055799;28;46119;-75
2022/05/10 13:58:00;;;;;;;;;7.00;7.00;;;;;;;;5055661;27;45473;-76
2022/05/10 14:00:32;;;;;;;;;10.25;9.25;;;;;;;;5053714;28;45473;-76
2022/05/10 14:02:57;;;;;;;;;9.50;9.25;;;;;;;;5052778;28;45312;-76
2022/05/10 14:05:24;;;;;;;;;8.00;8.00;;;;;;;;5058102;28;46017;-76
2022/05/10 14:07:56;;;;;;;;;13.25;9.75;;;;;;;;5055848;28;45576;-76
2022/05/10 14:10:24;;;;;;;;;11.75;10.75;;;;;;;;5055992;28;45391;-75
2022/05/10 14:12:54;;;;;;;;;9.25;9.00;;;;;;;;5058824;28;45434;-73
2022/05/10 14:15:27;;;;;;;;;8.00;8.00;;;;;;;;5055406;28;46257;-72
2022/05/10 14:18:01;;;;;;;;;7.25;6.25;;;;;;;;5056866;28;45462;-74
2022/05/10 14:20:29;;;;;;;;;8.33;7.00;;;;;;;;5062139;28;45456;-74
2022/05/10 14:22:57;;;;;;;;;12.00;10.00;;;;;;;;5065539;27;45496;-73
2022/05/10 14:25:26;;;;;;;;;9.33;9.33;;;;;;;;5065121;28;46045;-73
2022/05/10 14:27:58;;;;;;;;;9.75;9.00;;;;;;;;5061206;28;45573;-73
2022/05/10 14:30:24;;;;;;;;;4.50;3.00;;;;;;;;5071573;27;45310;-73
2022/05/10 14:32:50;;;;;;;;;11.00;8.25;;;;;;;;5057758;28;45480;-73
2022/05/10 14:35:32;;;;;;;;;9.50;9.50;;;;;;;;5060160;28;46013;-73
2022/05/10 14:38:05;;;;;;;;;6.50;6.50;;;;;;;;5058743;28;45517;-73
2022/05/10 14:40:33;;;;;;;;;7.50;7.00;;;;;;;;5058447;28;45461;-74
2022/05/10 14:43:02;;;;;;;;;7.25;7.25;;;;;;;;5058930;28;45268;-73
2022/05/10 14:45:43;;;;;;;;;10.50;8.00;;;;;;;;5056913;27;46361;-74
2022/05/10 14:48:41;;;;;;;;;8.00;7.00;;;;;;;;5038770;28;45405;-72
2022/05/10 14:51:08;;;;;;;;;6.00;4.25;;;;;;;;5023286;28;45445;-74
2022/05/10 14:53:39;;;;;;;;;5.00;5.00;;;;;;;;5060987;28;45338;-74
2022/05/10 14:56:04;;;;;;;;;5.75;5.75;;;;;;;;5059881;28;45669;-74